createdAt,value
2022-08-27T00:00:48.555Z,9.00
2022-08-27T00:03:16.780Z,8.85
2022-08-27T00:05:43.767Z,8.68
2022-08-27T00:08:12.757Z,9.57
2022-08-27T00:10:41.509Z,9.25
2022-08-27T00:13:08.601Z,8.73
2022-08-27T00:15:35.773Z,8.75
2022-08-27T00:18:03.335Z,9.27
2022-08-27T00:20:30.273Z,8.75
2022-08-27T00:22:57.038Z,8.50
2022-08-27T00:25:24.108Z,9.80
2022-08-27T00:27:51.711Z,8.85
2022-08-27T00:30:20.721Z,9.38
2022-08-27T00:32:47.894Z,9.90
2022-08-27T00:35:16.159Z,8.57
2022-08-27T00:37:43.736Z,9.77
2022-08-27T00:40:16.687Z,9.00
2022-08-27T00:42:46.020Z,7.97
2022-08-27T00:45:16.201Z,9.30
2022-08-27T00:47:47.258Z,8.60
2022-08-27T00:50:18.757Z,9.70
2022-08-27T00:52:57.739Z,8.63
2022-08-27T00:55:44.439Z,9.35
2022-08-27T00:58:17.739Z,9.70
2022-08-27T01:00:46.547Z,9.13
2022-08-27T01:03:14.565Z,9.90
2022-08-27T01:05:44.176Z,10.52
2022-08-27T01:08:19.170Z,9.40
2022-08-27T01:10:46.617Z,10.48
2022-08-27T01:13:17.335Z,10.23
2022-08-27T01:15:44.535Z,10.65
2022-08-27T01:18:13.576Z,10.07
2022-08-27T01:21:14.413Z,10.15
2022-08-27T01:23:50.815Z,9.88
2022-08-27T01:26:18.655Z,9.75
2022-08-27T01:28:45.905Z,9.77
2022-08-27T01:31:13.345Z,9.70
2022-08-27T01:33:40.608Z,10.27
2022-08-27T01:36:08.219Z,9.52
2022-08-27T01:38:35.167Z,9.77
2022-08-27T01:41:03.606Z,8.85
2022-08-27T01:43:31.773Z,10.60
2022-08-27T01:45:58.892Z,10.52
2022-08-27T01:48:25.881Z,9.93
2022-08-27T01:50:52.708Z,9.60
2022-08-27T01:53:22.882Z,8.80
2022-08-27T01:55:52.125Z,9.32
2022-08-27T01:58:21.222Z,9.90
2022-08-27T02:00:56.431Z,10.55
2022-08-27T02:03:24.776Z,9.45
2022-08-27T02:05:51.620Z,9.00
2022-08-27T02:08:18.969Z,10.23
2022-08-27T02:10:48.593Z,9.25
2022-08-27T02:13:16.601Z,9.60
2022-08-27T02:15:44.515Z,10.13
2022-08-27T02:18:12.267Z,9.05
2022-08-27T02:20:39.471Z,10.15
2022-08-27T02:23:06.382Z,9.00
2022-08-27T02:25:34.112Z,9.88
2022-08-27T02:28:01.920Z,14.13
2022-08-27T02:30:32.097Z,10.20
2022-08-27T02:33:05.481Z,10.40
2022-08-27T02:35:35.483Z,10.75
2022-08-27T02:38:02.941Z,9.70
2022-08-27T02:40:29.919Z,10.30
2022-08-27T02:42:56.712Z,10.25
2022-08-27T02:45:23.982Z,10.27
2022-08-27T02:47:50.769Z,10.50
2022-08-27T02:50:17.875Z,11.95
2022-08-27T02:52:46.385Z,11.05
2022-08-27T02:55:14.304Z,11.00
2022-08-27T02:57:45.020Z,10.50
2022-08-27T03:00:15.009Z,10.82
2022-08-27T03:02:42.060Z,10.23
2022-08-27T03:05:11.981Z,11.38
2022-08-27T03:07:38.901Z,12.10
2022-08-27T03:10:06.632Z,10.38
2022-08-27T03:12:36.361Z,11.90
2022-08-27T03:15:08.394Z,10.63
2022-08-27T03:17:54.237Z,12.45
2022-08-27T03:20:21.421Z,14.93
2022-08-27T03:22:49.159Z,11.43
2022-08-27T03:25:16.098Z,10.90
2022-08-27T03:27:42.871Z,10.10
2022-08-27T03:30:13.265Z,10.52
2022-08-27T03:32:40.142Z,11.68
2022-08-27T03:35:08.173Z,10.73
2022-08-27T03:37:35.547Z,10.35
2022-08-27T03:40:02.427Z,10.38
2022-08-27T03:42:29.313Z,10.85
2022-08-27T03:44:56.604Z,11.73
2022-08-27T03:47:23.893Z,11.10
2022-08-27T03:49:50.642Z,13.32
2022-08-27T03:52:17.719Z,15.52
2022-08-27T03:54:44.389Z,11.25
2022-08-27T03:57:11.837Z,10.82
2022-08-27T03:59:39.155Z,10.75
2022-08-27T04:02:05.994Z,10.55
2022-08-27T04:04:33.063Z,10.60
2022-08-27T04:07:00.152Z,11.38
2022-08-27T04:09:27.143Z,10.30
2022-08-27T04:11:54.279Z,10.50
2022-08-27T04:14:27.316Z,9.75
2022-08-27T04:16:56.669Z,10.38
2022-08-27T04:19:27.649Z,10.70
2022-08-27T04:22:02.453Z,10.57
2022-08-27T04:24:31.380Z,11.18
2022-08-27T04:26:59.951Z,11.32
2022-08-27T04:29:27.262Z,11.12
2022-08-27T04:31:54.729Z,10.50
2022-08-27T04:34:21.954Z,9.82
2022-08-27T04:36:48.822Z,9.80
2022-08-27T04:39:16.214Z,10.48
2022-08-27T04:41:43.215Z,9.98
2022-08-27T04:44:11.535Z,10.80
2022-08-27T04:46:40.772Z,10.50
2022-08-27T04:49:15.514Z,9.77
2022-08-27T04:51:43.302Z,9.32
2022-08-27T04:54:10.738Z,10.73
2022-08-27T04:56:38.294Z,9.68
2022-08-27T04:59:08.169Z,9.98
2022-08-27T05:01:36.184Z,9.93
2022-08-27T05:04:03.490Z,9.52
2022-08-27T05:06:30.696Z,10.02
2022-08-27T05:08:57.828Z,9.57
2022-08-27T05:11:27.189Z,9.65
2022-08-27T05:13:53.949Z,9.82
2022-08-27T05:16:22.972Z,10.25
2022-08-27T05:18:51.796Z,10.38
2022-08-27T05:21:22.989Z,9.48
2022-08-27T05:23:51.022Z,9.32
2022-08-27T05:26:18.645Z,9.05
2022-08-27T05:28:45.637Z,10.15
2022-08-27T05:31:14.320Z,10.00
2022-08-27T05:33:42.260Z,9.93
2022-08-27T05:36:26.329Z,9.57
2022-08-27T05:38:54.897Z,9.88
2022-08-27T05:41:25.755Z,10.27
2022-08-27T05:44:30.280Z,9.27
2022-08-27T05:46:56.043Z,9.60
2022-08-27T05:49:23.183Z,9.63
2022-08-27T05:51:50.173Z,10.45
2022-08-27T05:54:19.626Z,10.38
2022-08-27T05:56:50.128Z,9.85
2022-08-27T05:59:36.578Z,10.45
2022-08-27T06:02:06.328Z,10.70
2022-08-27T06:04:33.414Z,10.93
2022-08-27T06:07:00.150Z,10.88
2022-08-27T06:09:31.357Z,9.90
2022-08-27T06:12:00.214Z,9.68
2022-08-27T06:14:27.192Z,9.70
2022-08-27T06:16:54.220Z,10.27
2022-08-27T06:19:21.591Z,10.27
2022-08-27T06:22:00.727Z,9.50
2022-08-27T06:24:29.243Z,10.07
2022-08-27T06:26:57.527Z,10.32
2022-08-27T06:29:25.140Z,9.57
2022-08-27T06:31:53.043Z,10.18
2022-08-27T06:34:19.912Z,11.00
2022-08-27T06:36:46.671Z,11.30
2022-08-27T06:39:15.521Z,9.07
2022-08-27T06:41:44.186Z,9.85
2022-08-27T06:44:12.348Z,27.13
2022-08-27T06:46:39.720Z,14.25
2022-08-27T06:49:07.195Z,10.95
2022-08-27T06:51:36.312Z,10.40
2022-08-27T06:54:09.484Z,8.98
2022-08-27T06:56:36.448Z,9.38
2022-08-27T06:59:12.058Z,19.98
2022-08-27T07:01:41.832Z,10.90
2022-08-27T07:04:12.575Z,9.27
2022-08-27T07:06:41.016Z,8.15
2022-08-27T07:09:09.512Z,8.32
2022-08-27T07:11:36.720Z,7.75
2022-08-27T07:14:04.942Z,8.88
2022-08-27T07:16:31.968Z,8.52
2022-08-27T07:19:03.700Z,8.70
2022-08-27T07:21:32.328Z,8.07
2022-08-27T07:24:03.658Z,8.50
2022-08-27T07:26:33.015Z,7.82
2022-08-27T07:29:00.927Z,8.93
2022-08-27T07:31:28.250Z,10.18
2022-08-27T07:33:55.449Z,8.68
2022-08-27T07:36:23.143Z,8.85
2022-08-27T07:38:56.953Z,8.65
2022-08-27T07:41:31.225Z,11.88
2022-08-27T07:44:19.983Z,8.50
2022-08-27T07:46:49.326Z,8.68
2022-08-27T07:49:17.972Z,9.00
2022-08-27T07:51:45.779Z,11.25
2022-08-27T07:54:12.958Z,9.23
2022-08-27T07:56:39.825Z,11.00
2022-08-27T07:59:07.013Z,9.68
2022-08-27T08:01:34.387Z,9.63
2022-08-27T08:04:01.934Z,8.85
2022-08-27T08:06:28.757Z,8.13
2022-08-27T08:08:55.569Z,11.77
2022-08-27T08:11:22.578Z,10.27
2022-08-27T08:13:49.309Z,11.48
2022-08-27T08:16:16.267Z,9.52
2022-08-27T08:18:43.306Z,9.18
2022-08-27T08:21:13.732Z,8.82
2022-08-27T08:23:42.312Z,8.52
2022-08-27T08:26:12.142Z,7.47
2022-08-27T08:28:40.132Z,9.00
2022-08-27T08:31:07.837Z,8.73
2022-08-27T08:33:35.576Z,7.65
2022-08-27T08:36:14.970Z,9.23
2022-08-27T08:38:43.501Z,8.52
2022-08-27T08:41:38.017Z,8.43
2022-08-27T08:44:14.828Z,7.22
2022-08-27T08:46:55.761Z,6.07
2022-08-27T08:50:11.335Z,6.90
2022-08-27T08:52:49.786Z,6.72
2022-08-27T08:55:42.006Z,6.85
2022-08-27T08:58:25.977Z,6.50
2022-08-27T09:01:03.714Z,6.45
2022-08-27T09:03:35.522Z,6.20
2022-08-27T09:06:09.035Z,6.55
2022-08-27T09:08:42.549Z,6.25
2022-08-27T09:11:16.245Z,6.53
2022-08-27T09:13:53.372Z,6.47
2022-08-27T09:16:20.685Z,6.90
2022-08-27T09:18:52.512Z,6.43
2022-08-27T09:21:43.451Z,6.62
2022-08-27T09:24:35.594Z,6.62
2022-08-27T09:27:02.656Z,6.80
2022-08-27T09:29:30.252Z,6.75
2022-08-27T09:31:59.408Z,6.50
2022-08-27T09:34:34.640Z,6.15
2022-08-27T09:37:10.437Z,6.30
2022-08-27T09:40:06.197Z,7.43
2022-08-27T09:42:49.618Z,6.90
2022-08-27T09:45:25.930Z,7.53
2022-08-27T09:48:07.465Z,7.45
2022-08-27T09:50:50.761Z,7.10
2022-08-27T09:53:25.547Z,6.07
2022-08-27T09:55:58.404Z,7.03
2022-08-27T09:58:34.505Z,6.68
2022-08-27T10:01:19.620Z,6.53
2022-08-27T10:03:47.367Z,5.70
2022-08-27T10:06:14.209Z,5.85
2022-08-27T10:08:48.834Z,6.80
2022-08-27T10:11:34.810Z,6.68
2022-08-27T10:14:16.366Z,7.40
2022-08-27T10:17:10.600Z,7.43
2022-08-27T10:20:16.320Z,7.47
2022-08-27T10:22:52.132Z,6.95
2022-08-27T10:25:21.827Z,6.82
2022-08-27T10:28:05.075Z,6.82
2022-08-27T10:30:41.954Z,6.87
2022-08-27T10:33:15.063Z,7.18
2022-08-27T10:35:54.690Z,5.97
2022-08-27T10:38:43.811Z,7.43
2022-08-27T10:41:11.741Z,6.35
2022-08-27T10:43:47.794Z,6.78
2022-08-27T10:46:33.179Z,6.93
2022-08-27T10:49:18.360Z,7.37
2022-08-27T10:52:16.857Z,6.00
2022-08-27T10:54:46.734Z,5.90
2022-08-27T10:57:45.521Z,6.62
2022-08-27T11:00:16.773Z,6.50
2022-08-27T11:03:25.161Z,6.43
2022-08-27T11:05:56.066Z,6.30
2022-08-27T11:08:36.637Z,5.50
2022-08-27T11:11:57.122Z,6.15
2022-08-27T11:14:01.111Z,6.50
2022-08-27T11:16:37.230Z,6.00
2022-08-27T11:19:15.203Z,6.10
2022-08-27T11:22:05.784Z,6.75
2022-08-27T11:24:57.448Z,5.78
2022-08-27T11:27:27.412Z,6.65
2022-08-27T11:30:20.182Z,6.93
2022-08-27T11:32:55.799Z,6.45
2022-08-27T11:35:35.529Z,6.80
2022-08-27T11:38:35.849Z,6.32
2022-08-27T11:41:11.780Z,7.30
2022-08-27T11:43:39.219Z,7.20
2022-08-27T11:46:08.640Z,6.18
2022-08-27T11:48:41.926Z,5.78
2022-08-27T11:51:28.606Z,6.32
2022-08-27T11:54:01.938Z,5.32
2022-08-27T11:56:29.060Z,6.03
2022-08-27T11:58:56.791Z,5.80
2022-08-27T12:01:31.618Z,5.95
2022-08-27T12:04:25.324Z,6.25
2022-08-27T12:07:02.630Z,5.53
2022-08-27T12:09:42.873Z,5.72
2022-08-27T12:12:16.975Z,5.68
2022-08-27T12:15:03.785Z,6.57
2022-08-27T12:17:44.756Z,5.37
2022-08-27T12:23:21.142Z,5.18
2022-08-27T12:25:56.658Z,5.30
2022-08-27T12:28:26.810Z,5.78
2022-08-27T12:30:55.031Z,5.28
2022-08-27T12:33:34.459Z,5.35
2022-08-27T12:36:27.741Z,4.85
2022-08-27T12:38:58.327Z,5.80
2022-08-27T12:41:32.122Z,6.03
2022-08-27T12:44:09.305Z,5.87
2022-08-27T12:46:45.768Z,6.40
2022-08-27T12:49:38.028Z,6.90
2022-08-27T12:52:18.343Z,6.53
2022-08-27T12:55:06.774Z,7.07
2022-08-27T12:58:02.377Z,6.87
2022-08-27T13:00:38.780Z,5.87
2022-08-27T13:03:26.177Z,5.70
2022-08-27T13:05:57.435Z,6.47
2022-08-27T13:08:30.104Z,6.75
2022-08-27T13:11:07.065Z,6.07
2022-08-27T13:13:34.202Z,6.15
2022-08-27T13:16:04.478Z,6.10
2022-08-27T13:18:31.647Z,6.00
2022-08-27T13:21:14.565Z,5.85
2022-08-27T13:23:49.286Z,5.95
2022-08-27T13:26:23.340Z,5.90
2022-08-27T13:28:51.909Z,5.87
2022-08-27T13:31:22.253Z,6.43
2022-08-27T13:33:49.725Z,6.70
2022-08-27T13:36:32.366Z,5.40
2022-08-27T13:39:02.149Z,5.70
2022-08-27T13:41:35.050Z,5.50
2022-08-27T13:44:19.104Z,5.85
2022-08-27T13:46:52.277Z,4.97
2022-08-27T13:49:24.479Z,5.12
2022-08-27T13:52:01.054Z,5.07
2022-08-27T13:54:29.283Z,5.78
2022-08-27T13:57:10.052Z,5.62
2022-08-27T13:59:42.953Z,5.30
2022-08-27T14:02:10.389Z,5.20
2022-08-27T14:05:03.807Z,4.70
2022-08-27T14:07:34.482Z,4.53
2022-08-27T14:10:25.579Z,4.55
2022-08-27T14:13:04.144Z,4.10
2022-08-27T14:15:31.280Z,4.60
2022-08-27T14:17:58.077Z,5.15
2022-08-27T14:20:25.843Z,6.93
2022-08-27T14:22:53.392Z,5.18
2022-08-27T14:25:21.494Z,4.57
2022-08-27T14:27:54.215Z,5.40
2022-08-27T14:30:25.282Z,6.00
2022-08-27T14:32:58.568Z,5.87
2022-08-27T14:35:26.590Z,5.57
2022-08-27T14:37:54.728Z,5.35
2022-08-27T14:40:22.249Z,4.97
2022-08-27T14:42:49.504Z,5.78
2022-08-27T14:45:17.874Z,4.78
2022-08-27T14:47:45.369Z,4.90
2022-08-27T14:50:14.067Z,5.55
2022-08-27T14:52:40.871Z,5.45
2022-08-27T14:55:10.902Z,6.78
2022-08-27T14:57:38.664Z,13.32
2022-08-27T15:00:07.881Z,5.70
2022-08-27T15:02:35.202Z,5.20
2022-08-27T15:05:03.432Z,5.30
2022-08-27T15:07:38.995Z,5.40
2022-08-27T15:10:09.243Z,5.53
2022-08-27T15:12:36.658Z,5.30
2022-08-27T15:15:04.671Z,5.00
2022-08-27T15:17:34.588Z,5.37
2022-08-27T15:20:09.129Z,5.53
2022-08-27T15:22:44.099Z,5.55
2022-08-27T15:25:11.867Z,5.28
2022-08-27T15:27:39.475Z,5.80
2022-08-27T15:30:10.077Z,5.75
2022-08-27T15:32:41.043Z,6.10
2022-08-27T15:37:41.340Z,5.40
2022-08-27T15:40:09.269Z,5.97
2022-08-27T15:42:36.189Z,5.35
2022-08-27T15:45:03.979Z,5.43
2022-08-27T15:47:31.001Z,6.62
2022-08-27T15:49:57.817Z,6.18
2022-08-27T15:52:24.744Z,9.60
2022-08-27T15:54:51.791Z,6.55
2022-08-27T15:57:20.427Z,7.15
2022-08-27T15:59:47.920Z,5.80
2022-08-27T16:02:22.199Z,5.72
2022-08-27T16:04:50.097Z,5.93
2022-08-27T16:07:21.131Z,6.07
2022-08-27T16:09:48.297Z,5.93
2022-08-27T16:12:27.060Z,6.78
2022-08-27T16:14:55.691Z,6.62
2022-08-27T16:17:24.382Z,5.90
2022-08-27T16:19:51.282Z,6.40
2022-08-27T16:22:18.456Z,6.30
2022-08-27T16:24:45.566Z,6.80
2022-08-27T16:27:12.273Z,6.90
2022-08-27T16:29:39.529Z,6.97
2022-08-27T16:32:11.340Z,7.12
2022-08-27T16:34:39.591Z,6.95
2022-08-27T16:37:06.628Z,6.82
2022-08-27T16:39:37.390Z,7.18
2022-08-27T16:42:10.733Z,8.45
2022-08-27T16:44:38.423Z,8.20
2022-08-27T16:47:06.878Z,8.07
2022-08-27T16:49:52.608Z,7.22
2022-08-27T16:52:20.855Z,8.27
2022-08-27T16:54:48.020Z,7.25
2022-08-27T16:57:14.803Z,6.95
2022-08-27T16:59:41.486Z,8.20
2022-08-27T17:02:19.354Z,7.32
2022-08-27T17:05:07.301Z,7.60
2022-08-27T17:07:33.259Z,7.40
2022-08-27T17:10:05.095Z,8.20
2022-08-27T17:12:32.604Z,7.97
2022-08-27T17:15:00.827Z,8.00
2022-08-27T17:17:29.687Z,8.57
2022-08-27T17:19:56.753Z,8.73
2022-08-27T17:22:24.531Z,8.75
2022-08-27T17:24:51.297Z,8.73
2022-08-27T17:27:20.329Z,8.82
2022-08-27T17:29:47.249Z,7.75
2022-08-27T17:32:13.999Z,8.98
2022-08-27T17:34:40.658Z,8.85
2022-08-27T17:37:07.669Z,8.40
2022-08-27T17:39:34.307Z,8.63
2022-08-27T17:42:01.123Z,9.68
2022-08-27T17:44:31.930Z,9.27
2022-08-27T17:47:02.798Z,8.77
2022-08-27T17:49:31.191Z,9.48
2022-08-27T17:52:01.432Z,9.88
2022-08-27T17:54:44.286Z,8.65
2022-08-27T17:57:27.456Z,10.38
2022-08-27T17:59:55.664Z,9.32
2022-08-27T18:02:28.942Z,10.07
2022-08-27T18:04:56.840Z,10.55
2022-08-27T18:07:24.255Z,10.15
2022-08-27T18:09:51.230Z,10.02
2022-08-27T18:12:21.834Z,10.60
2022-08-27T18:14:58.272Z,11.77
2022-08-27T18:17:25.338Z,10.70
2022-08-27T18:19:52.165Z,11.07
2022-08-27T18:22:19.444Z,11.48
2022-08-27T18:24:46.470Z,10.98
2022-08-27T18:27:13.362Z,10.38
2022-08-27T18:29:40.825Z,10.73
2022-08-27T18:32:07.776Z,11.52
2022-08-27T18:34:34.503Z,11.70
2022-08-27T18:37:01.194Z,10.77
2022-08-27T18:39:29.137Z,11.02
2022-08-27T18:41:55.785Z,11.15
2022-08-27T18:44:22.467Z,11.68
2022-08-27T18:46:49.531Z,11.18
2022-08-27T18:49:16.316Z,11.07
2022-08-27T18:51:44.916Z,11.98
2022-08-27T18:54:14.063Z,12.70
2022-08-27T18:56:40.742Z,11.55
2022-08-27T18:59:07.450Z,11.65
2022-08-27T19:01:34.607Z,11.45
2022-08-27T19:04:03.378Z,11.90
2022-08-27T19:06:30.264Z,11.15
2022-08-27T19:08:57.548Z,11.23
2022-08-27T19:11:24.360Z,11.07
2022-08-27T19:13:51.100Z,11.43
2022-08-27T19:16:44.460Z,11.50
2022-08-27T19:19:13.681Z,9.75
2022-08-27T19:21:41.268Z,10.95
2022-08-27T19:24:08.645Z,11.23
2022-08-27T19:26:36.307Z,12.63
2022-08-27T19:29:04.592Z,11.38
2022-08-27T19:31:33.517Z,11.10
2022-08-27T19:34:00.424Z,10.93
2022-08-27T19:36:27.541Z,10.48
2022-08-27T19:38:55.375Z,11.93
2022-08-27T19:41:26.008Z,11.85
2022-08-27T19:43:54.897Z,11.10
2022-08-27T19:46:24.108Z,12.37
2022-08-27T19:48:51.334Z,11.45
2022-08-27T19:51:18.542Z,12.57
2022-08-27T19:53:45.670Z,14.35
2022-08-27T19:56:13.743Z,12.00
2022-08-27T19:58:42.798Z,12.20
2022-08-27T20:01:09.875Z,12.98
2022-08-27T20:03:39.308Z,11.63
2022-08-27T20:06:06.129Z,10.40
2022-08-27T20:08:33.559Z,11.55
2022-08-27T20:11:01.416Z,12.25
2022-08-27T20:13:32.932Z,10.77
2022-08-27T20:16:01.436Z,11.43
2022-08-27T20:18:28.413Z,11.40
2022-08-27T20:20:55.370Z,11.82
2022-08-27T20:23:22.424Z,11.93
2022-08-27T20:25:52.393Z,12.15
2022-08-27T20:28:38.730Z,11.98
2022-08-27T20:31:07.654Z,11.93
2022-08-27T20:33:34.388Z,10.95
2022-08-27T20:36:02.879Z,11.82
2022-08-27T20:38:30.167Z,11.98
2022-08-27T20:40:56.873Z,12.37
2022-08-27T20:43:23.502Z,12.20
2022-08-27T20:45:50.632Z,10.13
2022-08-27T20:48:17.331Z,10.20
2022-08-27T20:50:44.027Z,10.70
2022-08-27T20:53:11.281Z,12.05
2022-08-27T20:55:38.021Z,11.75
2022-08-27T20:58:23.118Z,11.35
2022-08-27T21:00:52.267Z,11.02
2022-08-27T21:03:19.320Z,12.10
2022-08-27T21:05:48.467Z,11.10
2022-08-27T21:08:18.265Z,11.45
2022-08-27T21:10:52.447Z,12.40
2022-08-27T21:13:20.669Z,18.05
2022-08-27T21:15:48.767Z,11.68
2022-08-27T21:18:21.433Z,11.80
2022-08-27T21:20:56.265Z,11.90
2022-08-27T21:23:23.354Z,12.25
2022-08-27T21:25:50.004Z,12.48
2022-08-27T21:28:16.774Z,11.07
2022-08-27T21:30:45.146Z,11.15
2022-08-27T21:33:11.832Z,11.45
2022-08-27T21:35:38.637Z,11.00
2022-08-27T21:38:05.606Z,11.50
2022-08-27T21:40:33.132Z,12.15
2022-08-27T21:43:01.817Z,12.30
2022-08-27T21:45:28.785Z,12.52
2022-08-27T21:47:55.687Z,11.85
2022-08-27T21:50:23.684Z,12.07
2022-08-27T21:52:50.803Z,10.55
2022-08-27T21:55:18.464Z,10.85
2022-08-27T21:57:45.156Z,10.70
2022-08-27T22:00:38.922Z,11.43
2022-08-27T22:03:10.286Z,10.70
2022-08-27T22:05:40.014Z,10.85
2022-08-27T22:08:08.915Z,11.40
2022-08-27T22:10:35.929Z,10.00
2022-08-27T22:13:03.322Z,12.00
2022-08-27T22:15:30.778Z,12.60
2022-08-27T22:17:58.323Z,12.32
2022-08-27T22:20:25.018Z,12.18
2022-08-27T22:22:52.393Z,11.77
2022-08-27T22:25:19.383Z,11.38
2022-08-27T22:27:46.046Z,12.00
2022-08-27T22:30:13.585Z,11.12
2022-08-27T22:32:40.408Z,12.07
2022-08-27T22:35:08.749Z,11.68
2022-08-27T22:37:36.603Z,12.55
2022-08-27T22:40:05.978Z,11.07
2022-08-27T22:42:32.748Z,12.13
2022-08-27T22:45:00.923Z,12.00
2022-08-27T22:47:27.901Z,12.73
2022-08-27T22:49:54.595Z,12.57
2022-08-27T22:52:28.202Z,11.32
2022-08-27T22:54:55.321Z,11.55
2022-08-27T22:57:22.072Z,12.27
2022-08-27T22:59:49.012Z,12.05
2022-08-27T23:02:16.135Z,11.85
2022-08-27T23:04:54.917Z,11.40
2022-08-27T23:07:24.599Z,13.43
2022-08-27T23:09:51.318Z,12.18
2022-08-27T23:12:19.775Z,11.93
2022-08-27T23:14:46.874Z,13.82
2022-08-27T23:17:13.921Z,12.90
2022-08-27T23:19:40.589Z,13.15
2022-08-27T23:22:08.774Z,12.70
2022-08-27T23:24:55.900Z,12.30
2022-08-27T23:27:28.781Z,12.90
2022-08-27T23:29:59.914Z,14.07
2022-08-27T23:34:53.957Z,12.93
2022-08-27T23:37:21.497Z,13.40
2022-08-27T23:39:48.679Z,14.15
2022-08-27T23:42:18.529Z,12.45
2022-08-27T23:44:49.074Z,12.40
2022-08-27T23:47:17.696Z,12.70
2022-08-27T23:49:44.594Z,11.07
2022-08-27T23:52:12.494Z,19.30
2022-08-27T23:54:40.264Z,14.73
2022-08-27T23:57:07.004Z,12.82
2022-08-27T23:59:33.758Z,10.48
